createdAt,value
2023-05-14T00:03:00.498Z,8.53
2023-05-14T00:08:04.844Z,8.47
2023-05-14T00:13:09.602Z,8.41
2023-05-14T00:18:13.174Z,8.35
2023-05-14T00:23:16.824Z,8.27
2023-05-14T00:28:21.859Z,8.15
2023-05-14T00:33:25.242Z,8.03
2023-05-14T00:38:28.902Z,7.90
2023-05-14T00:43:34.154Z,7.82
2023-05-14T00:48:37.774Z,7.69
2023-05-14T00:53:41.550Z,7.57
2023-05-14T00:58:46.386Z,7.45
2023-05-14T01:03:53.506Z,7.32
2023-05-14T01:09:07.537Z,7.22
2023-05-14T01:14:22.812Z,7.10
2023-05-14T01:19:34.916Z,6.99
2023-05-14T01:24:39.935Z,6.89
2023-05-14T01:29:46.691Z,6.78
2023-05-14T01:34:51.854Z,6.76
2023-05-14T01:39:58.066Z,6.72
2023-05-14T01:45:02.219Z,6.70
2023-05-14T01:50:08.807Z,6.67
2023-05-14T01:55:13.974Z,6.69
2023-05-14T02:00:17.990Z,6.71
2023-05-14T02:05:21.510Z,6.77
2023-05-14T02:10:26.485Z,6.85
2023-05-14T02:15:30.158Z,6.93
2023-05-14T02:20:33.748Z,7.06
2023-05-14T02:25:39.329Z,7.21
2023-05-14T02:30:42.919Z,7.34
2023-05-14T02:35:46.450Z,7.53
2023-05-14T02:40:51.670Z,7.70
2023-05-14T02:45:55.197Z,7.89
2023-05-14T02:50:58.615Z,8.15
2023-05-14T02:56:03.489Z,8.35
2023-05-14T03:01:07.377Z,8.55
2023-05-14T03:06:11.390Z,8.78
2023-05-14T03:11:18.940Z,9.00
2023-05-14T03:16:22.334Z,9.19
2023-05-14T03:21:26.261Z,9.41
2023-05-14T03:26:31.047Z,9.61
2023-05-14T03:31:34.562Z,9.83
2023-05-14T03:36:39.089Z,10.05
2023-05-14T03:41:43.958Z,10.25
2023-05-14T03:46:47.380Z,10.45
2023-05-14T03:51:51.464Z,10.66
2023-05-14T03:56:56.358Z,10.86
2023-05-14T04:02:00.076Z,11.07
2023-05-14T04:07:03.584Z,11.28
2023-05-14T04:12:10.722Z,11.51
2023-05-14T04:17:14.448Z,11.70
2023-05-14T04:22:17.811Z,11.91
2023-05-14T04:27:23.229Z,12.10
2023-05-14T04:32:26.994Z,12.28
2023-05-14T04:37:31.077Z,12.46
2023-05-14T04:42:35.989Z,12.57
2023-05-14T04:47:39.740Z,12.74
2023-05-14T04:52:43.326Z,12.97
2023-05-14T04:57:48.112Z,13.18
2023-05-14T05:02:51.556Z,13.37
2023-05-14T05:07:55.388Z,13.37
2023-05-14T05:13:00.242Z,13.45
2023-05-14T05:18:04.012Z,13.64
2023-05-14T05:23:07.899Z,13.85
2023-05-14T05:28:12.863Z,14.05
2023-05-14T05:33:16.333Z,14.27
2023-05-14T05:38:20.101Z,14.79
2023-05-14T05:43:25.188Z,15.45
2023-05-14T05:48:28.622Z,15.99
2023-05-14T05:53:32.080Z,16.15
2023-05-14T05:58:37.284Z,16.26
2023-05-14T06:03:40.909Z,16.33
2023-05-14T06:08:44.354Z,16.30
2023-05-14T06:13:49.245Z,16.18
2023-05-14T06:18:54.589Z,16.13
2023-05-14T06:23:58.045Z,16.09
2023-05-14T06:29:02.883Z,16.30
2023-05-14T06:34:06.307Z,16.60
2023-05-14T06:39:10.115Z,17.09
2023-05-14T06:44:15.000Z,17.60
2023-05-14T06:49:18.503Z,18.13
2023-05-14T06:54:22.044Z,18.80
2023-05-14T06:59:26.998Z,19.31
2023-05-14T07:04:30.443Z,19.75
2023-05-14T07:09:34.069Z,20.18
2023-05-14T07:14:39.022Z,20.21
2023-05-14T07:19:42.425Z,20.48
2023-05-14T07:24:46.036Z,21.10
2023-05-14T07:29:52.644Z,21.33
2023-05-14T07:34:56.118Z,22.03
2023-05-14T07:39:59.720Z,22.42
2023-05-14T07:45:04.846Z,22.64
2023-05-14T07:50:11.862Z,22.40
2023-05-14T07:55:15.287Z,21.42
2023-05-14T08:00:20.842Z,20.72
2023-05-14T08:05:24.668Z,22.74
2023-05-14T08:10:28.832Z,26.77
2023-05-14T08:15:33.963Z,28.93
2023-05-14T08:20:37.343Z,26.55
2023-05-14T08:25:40.656Z,24.50
2023-05-14T08:30:46.055Z,23.87
2023-05-14T08:35:51.461Z,25.76
2023-05-14T08:40:58.977Z,25.26
2023-05-14T08:46:07.394Z,25.97
2023-05-14T08:51:11.048Z,31.40
2023-05-14T08:56:16.587Z,29.69
2023-05-14T09:01:22.079Z,27.28
2023-05-14T09:06:26.912Z,25.34
2023-05-14T09:11:30.337Z,23.86
2023-05-14T09:16:38.017Z,22.94
2023-05-14T09:21:42.180Z,22.62
2023-05-14T09:26:45.763Z,23.09
2023-05-14T09:31:52.402Z,28.62
2023-05-14T09:36:59.488Z,33.51
2023-05-14T09:42:03.914Z,35.38
2023-05-14T09:47:09.806Z,31.49
2023-05-14T09:52:13.509Z,27.69
2023-05-14T09:57:16.893Z,25.36
2023-05-14T10:02:25.941Z,24.07
2023-05-14T10:07:35.168Z,23.95
2023-05-14T10:12:48.619Z,24.11
2023-05-14T10:17:57.796Z,24.40
2023-05-14T10:23:02.337Z,24.49
2023-05-14T10:28:07.209Z,24.29
2023-05-14T10:33:14.617Z,24.67
2023-05-14T10:38:18.329Z,26.04
2023-05-14T10:43:22.656Z,27.45
2023-05-14T10:48:28.282Z,30.35
2023-05-14T10:53:34.755Z,30.37
2023-05-14T10:58:39.363Z,28.79
2023-05-14T11:03:46.421Z,26.59
2023-05-14T11:08:52.952Z,25.95
2023-05-14T11:13:57.517Z,27.64
2023-05-14T11:19:06.783Z,25.78
2023-05-14T11:24:10.450Z,24.15
2023-05-14T11:29:14.061Z,23.52
2023-05-14T11:34:19.143Z,23.83
2023-05-14T11:39:22.458Z,24.71
2023-05-14T11:44:26.276Z,24.67
2023-05-14T11:49:31.216Z,23.79
2023-05-14T11:54:35.601Z,23.09
2023-05-14T11:59:39.678Z,22.82
2023-05-14T12:04:45.134Z,23.87
2023-05-14T12:09:50.041Z,27.63
2023-05-14T12:14:53.906Z,28.85
2023-05-14T12:19:59.109Z,26.46
2023-05-14T12:25:02.614Z,23.96
2023-05-14T12:35:17.245Z,22.00
2023-05-14T12:40:20.984Z,21.98
2023-05-14T12:45:25.097Z,22.19
2023-05-14T12:50:30.594Z,22.77
2023-05-14T12:55:34.728Z,23.79
2023-05-14T13:00:38.287Z,24.06
2023-05-14T13:05:43.199Z,24.34
2023-05-14T13:10:46.770Z,24.44
2023-05-14T13:15:50.691Z,24.29
2023-05-14T13:20:55.569Z,23.80
2023-05-14T13:25:59.480Z,23.09
2023-05-14T13:31:08.130Z,22.48
2023-05-14T13:36:14.719Z,22.05
2023-05-14T13:41:18.252Z,22.05
2023-05-14T13:46:21.784Z,22.20
2023-05-14T13:51:26.755Z,22.51
2023-05-14T13:56:30.573Z,23.49
2023-05-14T14:01:34.282Z,27.21
2023-05-14T14:06:39.284Z,31.47
2023-05-14T14:11:43.169Z,33.64
2023-05-14T14:16:46.636Z,31.06
2023-05-14T14:26:59.853Z,24.13
2023-05-14T14:32:04.081Z,22.35
2023-05-14T14:37:09.239Z,21.17
2023-05-14T14:42:12.661Z,20.47
2023-05-14T14:47:16.506Z,20.45
2023-05-14T14:52:21.289Z,21.96
2023-05-14T14:57:24.809Z,25.09
2023-05-14T15:02:28.311Z,26.96
2023-05-14T15:07:33.524Z,25.72
2023-05-14T15:12:37.306Z,23.17
2023-05-14T15:17:40.906Z,22.04
2023-05-14T15:22:46.152Z,23.59
2023-05-14T15:27:49.833Z,23.13
2023-05-14T15:32:53.689Z,21.26
2023-05-14T15:37:58.631Z,19.68
2023-05-14T15:43:02.296Z,18.41
2023-05-14T15:48:06.250Z,17.53
2023-05-14T15:53:11.210Z,17.01
2023-05-14T15:58:14.775Z,16.67
2023-05-14T16:03:18.905Z,16.44
2023-05-14T16:08:23.968Z,16.25
2023-05-14T16:13:27.625Z,16.26
2023-05-14T16:18:31.230Z,17.25
2023-05-14T16:23:36.122Z,17.38
2023-05-14T16:28:41.439Z,17.07
2023-05-14T16:33:45.025Z,16.87
2023-05-14T16:39:06.670Z,16.39
2023-05-14T16:44:11.113Z,15.55
2023-05-14T16:49:14.784Z,14.84
2023-05-14T16:54:19.521Z,14.18
2023-05-14T16:59:22.894Z,13.67
2023-05-14T17:04:26.751Z,13.34
2023-05-14T17:09:32.095Z,13.08
2023-05-14T17:14:35.540Z,12.89
2023-05-14T17:19:39.044Z,12.69
2023-05-14T17:24:43.941Z,12.38
2023-05-14T17:29:49.423Z,12.02
2023-05-14T17:34:52.999Z,11.63
2023-05-14T17:39:57.792Z,11.42
2023-05-14T17:45:03.139Z,11.21
2023-05-14T17:50:10.073Z,10.98
2023-05-14T17:55:15.357Z,10.77
2023-05-14T18:00:19.382Z,10.63
2023-05-14T18:05:23.135Z,10.46
2023-05-14T18:10:29.732Z,10.12
2023-05-14T18:15:33.388Z,9.98
2023-05-14T18:20:36.780Z,9.80
2023-05-14T18:25:41.858Z,9.65
2023-05-14T18:30:45.463Z,9.53
2023-05-14T18:35:49.144Z,9.43
2023-05-14T18:40:54.038Z,9.36
2023-05-14T18:45:57.574Z,9.25
2023-05-14T18:51:01.501Z,9.17
2023-05-14T18:56:06.607Z,9.07
2023-05-14T19:01:10.241Z,8.98
2023-05-14T19:06:14.569Z,8.90
2023-05-14T19:11:19.570Z,8.80
2023-05-14T19:16:23.243Z,8.69
2023-05-14T19:21:27.017Z,8.54
2023-05-14T19:26:32.164Z,8.41
2023-05-14T19:31:35.733Z,8.26
2023-05-14T19:36:39.192Z,8.08
2023-05-14T19:41:44.171Z,7.87
2023-05-14T19:46:47.739Z,7.69
2023-05-14T19:51:51.351Z,7.56
2023-05-14T19:56:56.177Z,7.50
2023-05-14T20:01:59.694Z,7.36
2023-05-14T20:07:03.173Z,7.17
2023-05-14T20:12:09.136Z,6.99
2023-05-14T20:17:12.774Z,6.81
2023-05-14T20:22:16.308Z,6.68
2023-05-14T20:27:21.046Z,6.52
2023-05-14T20:32:25.219Z,6.41
2023-05-14T20:37:29.886Z,6.29
2023-05-14T20:42:36.483Z,6.15
2023-05-14T20:47:41.674Z,6.05
2023-05-14T20:52:45.572Z,5.91
2023-05-14T20:57:50.968Z,5.84
2023-05-14T21:02:54.691Z,5.75
2023-05-14T21:07:58.155Z,5.68
2023-05-14T21:13:03.167Z,5.60
2023-05-14T21:18:06.867Z,5.52
2023-05-14T21:23:10.294Z,5.43
2023-05-14T21:28:15.124Z,5.37
2023-05-14T21:33:19.559Z,5.32
2023-05-14T21:38:23.023Z,5.26
2023-05-14T21:43:28.291Z,5.26
2023-05-14T21:48:32.086Z,5.23
2023-05-14T21:53:35.968Z,5.19
2023-05-14T21:58:41.646Z,5.12
2023-05-14T22:03:45.091Z,5.10
2023-05-14T22:08:48.465Z,5.01
2023-05-14T22:13:53.354Z,4.88
2023-05-14T22:18:57.107Z,4.75
2023-05-14T22:24:00.684Z,4.64
2023-05-14T22:29:05.630Z,4.55
2023-05-14T22:34:09.550Z,4.51
2023-05-14T22:39:13.665Z,4.46
2023-05-14T22:44:18.646Z,4.39
2023-05-14T22:49:22.332Z,4.39
2023-05-14T22:54:25.839Z,4.40
2023-05-14T22:59:30.719Z,4.34
2023-05-14T23:04:34.287Z,4.24
2023-05-14T23:09:37.785Z,4.21
2023-05-14T23:14:42.821Z,4.17
2023-05-14T23:19:46.292Z,4.08
2023-05-14T23:24:49.642Z,4.00
2023-05-14T23:29:54.476Z,3.97
2023-05-14T23:34:58.181Z,3.88
2023-05-14T23:40:01.832Z,3.74
2023-05-14T23:45:10.125Z,3.63
2023-05-14T23:50:13.754Z,3.54
2023-05-14T23:55:17.312Z,3.49
